Time;durP1;ratioP1;P1;durP2;ratioP2;P2;SDS_P1;SDS_P2;PMS_P1;PMS_P2;Temp;Humidity;BMP_temperature;BMP_pressure;BME280_temperature;BME280_humidity;BME280_pressure;Samples;Min_cycle;Max_cycle;Signal;HPM_P1;HPM_P2
2021/07/30 07:44:49;;;;;;;10.38;7.60;;;;;;;24.55;100.00;94613.22;5130038;27;20173;-59
2021/07/30 07:47:14;;;;;;;9.07;7.95;;;;;;;24.64;100.00;94662.25;5130035;28;20035;-60
2021/07/30 07:49:40;;;;;;;7.85;6.75;;;;;;;24.60;100.00;94651.25;5122352;28;20035;-59
2021/07/30 07:52:08;;;;;;;8.88;7.28;;;;;;;24.49;100.00;94666.69;5108811;28;20030;-61
2021/07/30 07:54:33;;;;;;;11.73;6.97;;;;;;;24.58;100.00;94618.75;5109141;28;20034;-61
2021/07/30 07:57:02;;;;;;;8.68;7.40;;;;;;;24.79;100.00;94595.63;5107863;28;20028;-61
2021/07/30 07:59:28;;;;;;;8.95;6.40;;;;;;;25.18;100.00;94628.31;5108468;28;20024;-60
2021/07/30 08:01:55;;;;;;;9.15;7.57;;;;;;;25.17;100.00;94701.53;5108699;28;20164;-61
2021/07/30 08:04:23;;;;;;;11.32;7.40;;;;;;;25.44;100.00;94760.75;5108778;28;20031;-61
2021/07/30 08:06:49;;;;;;;7.35;6.45;;;;;;;25.68;100.00;94748.56;5107635;28;20023;-61
2021/07/30 08:09:14;;;;;;;9.20;7.68;;;;;;;25.77;100.00;94796.94;5095729;28;20024;-60
2021/07/30 08:11:42;;;;;;;7.80;6.80;;;;;;;25.77;100.00;94785.97;5108609;28;20032;-60
2021/07/30 08:14:16;;;;;;;10.77;7.25;;;;;;;25.71;100.00;94812.91;5095498;28;20542;-61
2021/07/30 08:16:42;;;;;;;9.15;7.15;;;;;;;25.87;100.00;94813.56;5108880;28;20024;-61
2021/07/30 08:19:14;;;;;;;7.70;6.35;;;;;;;26.20;100.00;94790.09;5107228;28;20072;-62
2021/07/30 08:21:42;;;;;;;8.50;6.40;;;;;;;26.47;100.00;94794.41;5106582;28;20054;-61
2021/07/30 08:24:10;;;;;;;10.63;7.50;;;;;;;26.69;100.00;94813.91;5108448;28;20035;-61
2021/07/30 08:26:39;;;;;;;8.48;6.75;;;;;;;26.97;100.00;94827.19;5108596;28;20047;-61
2021/07/30 08:29:04;;;;;;;8.75;6.60;;;;;;;27.12;100.00;94763.75;5108391;28;20028;-61
2021/07/30 08:31:29;;;;;;;9.73;6.80;;;;;;;27.30;100.00;94854.69;5108044;28;20475;-61
2021/07/30 08:33:55;;;;;;;7.88;6.85;;;;;;;27.57;100.00;95067.19;5107125;28;20098;-62
2021/07/30 08:36:25;;;;;;;7.55;6.38;;;;;;;27.42;100.00;95082.72;5091888;28;20034;-61
2021/07/30 08:38:51;;;;;;;8.00;7.15;;;;;;;27.33;100.00;95087.69;5113937;27;20475;-62
2021/07/30 08:41:20;;;;;;;8.75;6.53;;;;;;;27.52;100.00;95063.97;5107414;28;20030;-61
2021/07/30 08:43:50;;;;;;;8.88;6.68;;;;;;;27.60;100.00;95060.94;5106641;28;20044;-62
2021/07/30 08:46:16;;;;;;;7.78;6.70;;;;;;;27.23;100.00;95082.81;5106983;28;20034;-61
2021/07/30 08:48:44;;;;;;;11.35;7.38;;;;;;;26.88;100.00;95080.31;5107093;28;20028;-62
2021/07/30 08:51:16;;;;;;;8.93;7.30;;;;;;;26.71;100.00;95045.91;5093864;28;20042;-61
2021/07/30 08:53:43;;;;;;;9.20;7.10;;;;;;;26.52;100.00;95068.75;5099546;28;20020;-62
2021/07/30 08:56:08;;;;;;;8.15;7.00;;;;;;;26.25;100.00;95031.38;5100245;28;20521;-62
2021/07/30 08:58:34;;;;;;;8.02;7.22;;;;;;;26.01;100.00;94992.16;5086149;28;20036;-62
2021/07/30 09:00:59;;;;;;;7.63;6.70;;;;;;;25.73;100.00;94971.66;5105500;28;20118;-62
2021/07/30 09:03:43;;;;;;;9.30;6.65;;;;;;;25.58;100.00;94978.78;5099299;28;20036;-63
2021/07/30 09:06:18;;;;;;;6.63;5.93;;;;;;;25.28;100.00;94953.91;5098674;28;20418;-62
2021/07/30 09:09:04;;;;;;;7.80;6.88;;;;;;;24.97;100.00;94835.06;5103421;28;20033;-62
2021/07/30 09:11:40;;;;;;;8.38;7.13;;;;;;;24.69;100.00;94706.56;5096134;28;20036;-61
2021/07/30 09:14:10;;;;;;;8.35;6.30;;;;;;;24.53;100.00;94676.56;5099160;28;20023;-62
2021/07/30 09:16:50;;;;;;;8.77;6.78;;;;;;;24.40;100.00;94655.16;5099926;28;20023;-62
2021/07/30 09:19:15;;;;;;;6.78;6.07;;;;;;;24.60;100.00;94620.31;5068720;28;20386;-61
2021/07/30 09:21:46;;;;;;;7.55;6.10;;;;;;;24.88;100.00;94551.53;5093675;28;20020;-61
2021/07/30 09:24:20;;;;;;;7.78;6.70;;;;;;;25.18;100.00;94658.47;5094036;28;20424;-62
2021/07/30 09:26:53;;;;;;;9.70;6.68;;;;;;;25.52;100.00;94730.69;5093998;28;20107;-62
2021/07/30 09:29:21;;;;;;;9.10;6.50;;;;;;;25.64;100.00;94842.94;5093896;28;20024;-62
2021/07/30 09:31:56;;;;;;;7.68;6.88;;;;;;;25.99;100.00;94911.34;5093375;28;20535;-62
2021/07/30 09:34:51;;;;;;;7.22;6.50;;;;;;;26.47;100.00;94959.19;5093603;28;20107;-62
2021/07/30 09:37:35;;;;;;;10.15;6.05;;;;;;;26.50;100.00;95027.16;5093853;28;20028;-62
2021/07/30 09:40:20;;;;;;;7.38;6.57;;;;;;;26.43;100.00;95035.25;5093393;28;20020;-61
2021/07/30 09:42:45;;;;;;;7.30;6.40;;;;;;;26.81;100.00;94998.56;5092763;28;20044;-61
2021/07/30 09:45:13;;;;;;;8.00;6.40;;;;;;;26.72;100.00;94995.31;5093662;28;20035;-61
2021/07/30 09:47:51;;;;;;;9.48;7.03;;;;;;;26.46;100.00;95001.56;5093577;28;20024;-62
2021/07/30 09:50:20;;;;;;;7.85;6.70;;;;;;;26.54;100.00;94994.22;5093811;28;20378;-61
2021/07/30 09:52:51;;;;;;;8.63;6.95;;;;;;;26.34;100.00;94943.25;5092927;28;20099;-62
2021/07/30 09:55:21;;;;;;;8.38;6.00;;;;;;;26.51;100.00;94971.03;5093278;28;20110;-62
2021/07/30 09:57:55;;;;;;;7.45;5.65;;;;;;;26.76;100.00;95001.63;5091878;28;20028;-62
2021/07/30 10:00:24;;;;;;;7.22;6.50;;;;;;;27.06;100.00;94998.16;5093248;28;20031;-62
2021/07/30 10:02:52;;;;;;;7.80;6.53;;;;;;;27.53;100.00;94991.28;5092804;28;20024;-62
2021/07/30 10:05:20;;;;;;;11.93;6.72;;;;;;;27.19;100.00;95035.25;5092329;28;20020;-61
2021/07/30 10:07:45;;;;;;;7.60;6.70;;;;;;;26.86;100.00;94992.75;5092115;28;20050;-62
2021/07/30 10:10:23;;;;;;;8.43;7.53;;;;;;;26.92;100.00;95048.22;5093117;28;20024;-62
2021/07/30 10:12:53;;;;;;;8.68;7.10;;;;;;;26.77;100.00;95000.47;5092113;28;20028;-57
2021/07/30 10:15:19;;;;;;;9.60;6.43;;;;;;;27.10;100.00;95032.78;5093685;28;20035;-61
2021/07/30 10:17:46;;;;;;;9.20;6.43;;;;;;;27.36;100.00;95042.97;5093344;28;20030;-61
2021/07/30 10:20:13;;;;;;;7.25;6.45;;;;;;;27.64;100.00;95044.47;5091323;28;20514;-61
2021/07/30 10:23:00;;;;;;;8.63;7.22;;;;;;;28.03;100.00;95053.22;5093538;28;20024;-62
2021/07/30 10:25:41;;;;;;;8.82;7.93;;;;;;;28.57;100.00;95073.81;5093516;28;20058;-61
2021/07/30 10:28:18;;;;;;;8.90;6.78;;;;;;;28.74;100.00;95070.41;5093391;28;20032;-61
2021/07/30 10:31:10;;;;;;;9.27;7.32;;;;;;;28.63;100.00;95071.50;5083099;28;20034;-61
2021/07/30 10:33:41;;;;;;;7.53;6.80;;;;;;;28.63;100.00;95088.03;5092253;28;20497;-61
2021/07/30 10:36:32;;;;;;;7.32;6.63;;;;;;;28.84;100.00;95077.19;5093381;28;20510;-62
2021/07/30 10:39:12;;;;;;;7.78;6.70;;;;;;;29.14;100.00;95088.06;5091793;28;20035;-62
2021/07/30 10:41:41;;;;;;;9.68;6.80;;;;;;;29.06;100.00;95065.16;5093223;28;20076;-59
2021/07/30 10:44:08;;;;;;;8.57;7.22;;;;;;;28.77;100.00;95086.22;5092880;28;20506;-59
2021/07/30 10:46:39;;;;;;;7.85;6.80;;;;;;;28.90;100.00;95039.84;5088549;28;20402;-60
2021/07/30 10:49:37;;;;;;;8.23;7.05;;;;;;;29.03;100.00;95068.69;5093046;28;20032;-59
2021/07/30 10:52:27;;;;;;;8.20;7.38;;;;;;;28.97;100.00;95072.97;5093087;28;20051;-59
2021/07/30 10:54:55;;;;;;;9.35;7.38;;;;;;;29.04;100.00;95066.72;5093067;28;20031;-57
2021/07/30 10:57:47;;;;;;;14.95;8.38;;;;;;;29.15;100.00;95081.38;5091747;28;20024;-58
2021/07/30 11:00:20;;;;;;;10.07;7.32;;;;;;;28.95;100.00;95052.47;5092819;28;20023;-57
2021/07/30 11:03:04;;;;;;;7.30;6.50;;;;;;;29.32;100.00;95033.03;5092954;28;20429;-59
2021/07/30 11:06:07;;;;;;;8.35;6.70;;;;;;;29.73;100.00;95058.47;5092776;28;20077;-61
2021/07/30 11:12:02;;;;;;;7.78;6.95;;;;;;;29.52;100.00;95061.13;5092688;28;20395;-58
2021/07/30 11:14:33;;;;;;;7.15;6.45;;;;;;;29.83;100.00;95043.91;5080408;28;20119;-57
2021/07/30 11:17:05;;;;;;;8.48;7.38;;;;;;;29.91;100.00;95058.53;5092639;28;20031;-55
2021/07/30 11:19:48;;;;;;;8.82;7.50;;;;;;;30.07;100.00;95056.25;5092343;28;20055;-60
2021/07/30 11:22:18;;;;;;;7.40;6.70;;;;;;;30.02;100.00;95048.31;5092663;28;20035;-55
2021/07/30 11:24:52;;;;;;;8.05;6.72;;;;;;;30.05;100.00;95043.97;5092539;28;20058;-56
2021/07/30 11:27:19;;;;;;;8.57;6.53;;;;;;;30.14;100.00;95056.25;5092513;28;20024;-62
2021/07/30 11:29:57;;;;;;;7.88;7.07;;;;;;;29.97;99.94;95071.59;5092608;28;20024;-62
2021/07/30 11:32:28;;;;;;;7.55;6.75;;;;;;;29.87;100.00;95064.06;5092627;28;20035;-61
2021/07/30 11:35:09;;;;;;;8.07;6.57;;;;;;;29.88;100.00;95049.06;5092536;28;20020;-62
2021/07/30 11:37:34;;;;;;;7.95;6.88;;;;;;;30.11;100.00;95062.56;5093207;28;20390;-62
2021/07/30 11:40:01;;;;;;;9.35;7.28;;;;;;;30.13;97.61;95084.28;5092319;28;20111;-60
2021/07/30 11:42:32;;;;;;;8.55;6.35;;;;;;;30.30;100.00;95059.47;5091984;28;20031;-63
2021/07/30 11:45:17;;;;;;;8.57;7.07;;;;;;;30.25;99.90;95064.56;5092579;28;20129;-61
2021/07/30 11:47:43;;;;;;;8.80;7.25;;;;;;;30.20;99.99;95067.72;5092605;28;20453;-57
2021/07/30 11:50:14;;;;;;;8.48;7.60;;;;;;;30.15;100.00;95057.84;5092199;28;20058;-61
2021/07/30 11:52:43;;;;;;;7.60;6.90;;;;;;;29.89;100.00;95056.16;5091151;28;20073;-59
2021/07/30 11:55:15;;;;;;;8.45;6.70;;;;;;;29.90;100.00;95054.97;5091450;28;20077;-61
2021/07/30 11:57:41;;;;;;;8.25;7.45;;;;;;;29.84;100.00;95058.50;5092337;28;20111;-61
2021/07/30 12:00:07;;;;;;;8.05;7.25;;;;;;;30.16;100.00;95062.16;5090985;28;20681;-62
2021/07/30 12:02:32;;;;;;;7.25;6.55;;;;;;;30.54;98.93;95062.66;5091006;28;20425;-61
2021/07/30 12:04:58;;;;;;;9.00;6.80;;;;;;;30.50;91.38;95075.66;5092083;28;20032;-57
2021/07/30 12:07:35;;;;;;;7.95;7.15;;;;;;;30.57;87.99;95073.69;5089703;28;20024;-59
2021/07/30 12:10:01;;;;;;;10.07;7.55;;;;;;;30.87;89.22;95078.88;5091090;28;20067;-60
2021/07/30 12:12:29;;;;;;;9.52;7.40;;;;;;;31.41;88.67;95065.78;5090406;28;20028;-58
2021/07/30 12:14:55;;;;;;;7.22;6.63;;;;;;;31.63;88.35;95065.72;5090571;28;20028;-60
2021/07/30 12:17:21;;;;;;;8.82;7.10;;;;;;;31.92;87.81;95047.06;5081282;28;20020;-58
2021/07/30 12:20:13;;;;;;;7.40;6.70;;;;;;;32.18;84.67;95052.03;5091949;28;20031;-60
2021/07/30 12:22:46;;;;;;;9.63;7.17;;;;;;;32.06;86.83;95037.88;5092099;28;20062;-57
2021/07/30 12:25:45;;;;;;;7.20;6.60;;;;;;;32.11;84.18;95034.66;5092049;28;20282;-58
2021/07/30 12:28:16;;;;;;;7.88;7.18;;;;;;;31.98;87.43;95029.59;5091985;28;20089;-60
2021/07/30 12:30:45;;;;;;;8.50;7.70;;;;;;;31.92;85.05;95024.88;5094350;28;20028;-58
2021/07/30 12:33:28;;;;;;;7.78;6.97;;;;;;;32.07;88.57;95012.53;5095740;28;20020;-54
2021/07/30 12:36:02;;;;;;;8.57;7.78;;;;;;;31.73;88.09;95017.81;5095719;28;20028;-57
2021/07/30 12:38:27;;;;;;;9.15;8.30;;;;;;;31.78;84.38;95013.88;5094425;28;20028;-57
2021/07/30 12:41:14;;;;;;;8.20;7.50;;;;;;;31.82;88.99;94993.28;5095352;28;20031;-55
2021/07/30 12:43:44;;;;;;;8.40;7.60;;;;;;;32.00;88.27;94991.19;5095147;28;20036;-58
2021/07/30 12:46:10;;;;;;;8.07;7.35;;;;;;;31.82;87.79;94986.97;5095126;28;20020;-55
2021/07/30 12:48:48;;;;;;;9.90;7.80;;;;;;;31.80;87.36;94976.25;5095322;28;20030;-57
2021/07/30 12:51:24;;;;;;;8.70;7.88;;;;;;;31.51;88.04;94972.84;5094206;28;20020;-57
2021/07/30 12:54:04;;;;;;;8.05;7.25;;;;;;;31.52;90.47;94966.09;5093983;28;20027;-56
2021/07/30 12:56:48;;;;;;;8.40;7.60;;;;;;;31.65;88.87;94961.69;5094064;28;20039;-56
2021/07/30 12:59:13;;;;;;;9.00;8.13;;;;;;;31.69;85.93;94953.34;5095217;28;20027;-56
2021/07/30 13:01:42;;;;;;;8.88;7.70;;;;;;;31.84;89.94;94946.59;5094122;28;20016;-55
2021/07/30 13:04:09;;;;;;;11.52;8.45;;;;;;;32.03;88.73;94939.75;5095067;28;20027;-54
2021/07/30 13:06:34;;;;;;;9.85;7.80;;;;;;;31.91;87.56;94938.22;5093953;28;20065;-58
2021/07/30 13:09:03;;;;;;;9.32;8.07;;;;;;;31.71;87.00;94926.84;5095095;28;20381;-54
2021/07/30 13:11:31;;;;;;;8.65;7.85;;;;;;;31.71;85.36;94935.16;5094844;28;20137;-56
2021/07/30 13:13:59;;;;;;;10.68;7.80;;;;;;;31.80;86.42;94931.94;5095055;28;20096;-57
2021/07/30 13:16:24;;;;;;;9.63;7.35;;;;;;;31.93;86.67;94927.53;5094914;28;20028;-60
2021/07/30 13:18:53;;;;;;;8.45;7.43;;;;;;;31.78;86.91;94931.56;5094818;28;20023;-61
2021/07/30 13:21:20;;;;;;;9.25;8.32;;;;;;;31.54;87.41;94924.94;5094599;28;20028;-60
2021/07/30 13:23:45;;;;;;;8.35;7.55;;;;;;;31.56;87.81;94927.31;5094652;28;20493;-59
2021/07/30 13:26:14;;;;;;;9.65;7.88;;;;;;;31.66;85.43;94929.25;5093492;28;20028;-61
2021/07/30 13:28:39;;;;;;;8.45;7.65;;;;;;;32.04;88.92;94924.69;5093363;28;20028;-60
2021/07/30 13:31:07;;;;;;;9.13;8.23;;;;;;;31.95;85.85;94927.91;5094562;28;20024;-60
2021/07/30 13:33:35;;;;;;;8.25;7.25;;;;;;;31.98;88.78;94918.00;5093340;28;20375;-60
2021/07/30 13:36:08;;;;;;;8.70;7.38;;;;;;;32.27;86.62;94924.91;5094867;28;20024;-61
2021/07/30 13:38:42;;;;;;;12.40;8.20;;;;;;;32.18;86.21;94924.56;5094493;28;20098;-61
2021/07/30 13:41:14;;;;;;;8.07;7.28;;;;;;;32.19;88.51;94903.97;5094155;28;20055;-61
2021/07/30 13:43:40;;;;;;;8.23;7.40;;;;;;;32.07;90.07;94901.69;5094194;28;20051;-60
2021/07/30 13:46:06;;;;;;;8.60;7.80;;;;;;;31.65;91.47;94886.13;5090957;28;20445;-60
2021/07/30 13:48:32;;;;;;;7.95;7.15;;;;;;;31.22;94.41;94885.56;5094163;28;20450;-60
2021/07/30 13:51:01;;;;;;;8.20;7.28;;;;;;;30.82;98.23;94874.63;5092046;28;20047;-61
2021/07/30 13:53:30;;;;;;;8.40;7.60;;;;;;;30.57;100.00;94863.63;5094495;28;20028;-60
2021/07/30 13:55:56;;;;;;;9.23;7.75;;;;;;;30.25;100.00;94843.53;5094231;28;20023;-61
2021/07/30 13:58:21;;;;;;;8.00;7.13;;;;;;;29.91;100.00;94868.78;5092862;28;20110;-59
2021/07/30 14:00:48;;;;;;;9.45;7.63;;;;;;;29.49;100.00;94877.81;5094017;28;20103;-60
2021/07/30 14:03:14;;;;;;;8.80;7.93;;;;;;;29.33;100.00;94872.63;5075675;28;20030;-60
2021/07/30 14:06:07;;;;;;;8.52;7.63;;;;;;;29.15;100.00;94880.03;5093873;28;20024;-59
2021/07/30 14:08:33;;;;;;;10.77;8.52;;;;;;;29.02;100.00;94887.88;5086031;28;20063;-59
2021/07/30 14:10:58;;;;;;;11.23;8.23;;;;;;;28.90;100.00;94896.50;5093911;28;20474;-58
2021/07/30 14:13:24;;;;;;;8.73;7.82;;;;;;;28.48;100.00;94902.53;5093826;28;20077;-59
2021/07/30 14:15:55;;;;;;;9.40;7.40;;;;;;;27.96;100.00;94897.00;5109495;28;20035;-57
2021/07/30 14:18:23;;;;;;;9.00;8.18;;;;;;;27.55;100.00;94876.13;5085650;28;20028;-56
2021/07/30 14:20:49;;;;;;;8.32;7.50;;;;;;;27.32;100.00;94859.78;5093529;28;20028;-59
2021/07/30 14:23:14;;;;;;;8.60;7.72;;;;;;;27.15;100.00;94825.47;5093549;28;20443;-60
2021/07/30 14:25:42;;;;;;;8.75;7.55;;;;;;;27.03;100.00;94804.53;5093635;28;20028;-60
2021/07/30 14:28:10;;;;;;;9.32;7.93;;;;;;;26.71;100.00;94822.59;5093401;28;20063;-60
2021/07/30 14:30:39;;;;;;;10.35;7.47;;;;;;;26.58;100.00;94759.63;5093452;28;20368;-59
2021/07/30 14:33:10;;;;;;;8.60;7.78;;;;;;;26.37;100.00;94780.53;5093084;28;20107;-59
2021/07/30 14:35:35;;;;;;;8.85;8.05;;;;;;;26.12;100.00;94742.53;5092158;28;20031;-60
2021/07/30 14:38:01;;;;;;;8.05;7.25;;;;;;;25.81;100.00;94721.72;5093201;28;20020;-60
2021/07/30 14:40:28;;;;;;;8.27;7.47;;;;;;;25.57;100.00;94648.09;5093219;28;20059;-61
2021/07/30 14:42:58;;;;;;;8.57;7.68;;;;;;;25.24;100.00;94600.25;5092649;28;20044;-59
2021/07/30 14:45:23;;;;;;;7.88;7.07;;;;;;;24.99;100.00;94588.09;5093222;28;20024;-59
2021/07/30 14:47:51;;;;;;;8.45;7.60;;;;;;;24.76;100.00;94545.09;5093148;28;20020;-60
2021/07/30 14:50:16;;;;;;;9.32;8.07;;;;;;;24.52;100.00;94479.78;5091768;28;20036;-60
2021/07/30 14:52:42;;;;;;;10.25;7.22;;;;;;;23.95;100.00;94481.56;5092529;28;20092;-60
2021/07/30 14:55:07;;;;;;;8.63;7.22;;;;;;;23.61;100.00;94344.66;5091700;28;20423;-56
2021/07/30 14:57:35;;;;;;;6.35;5.70;;;;;;;23.29;100.00;94355.00;5093022;28;20066;-58
2021/07/30 15:00:13;;;;;;;6.03;5.43;;;;;;;22.99;100.00;94302.16;5092921;28;20023;-56
2021/07/30 15:02:41;;;;;;;9.13;6.28;;;;;;;22.54;100.00;94213.53;5091603;28;20020;-59
2021/07/30 15:05:07;;;;;;;7.80;6.20;;;;;;;22.37;100.00;94119.31;5092864;28;20027;-59
2021/07/30 15:07:32;;;;;;;7.15;5.85;;;;;;;22.04;100.00;94105.41;5092831;28;20118;-58
2021/07/30 15:10:01;;;;;;;5.72;5.13;;;;;;;21.86;100.00;94075.06;5091590;28;20367;-56
2021/07/30 15:12:29;;;;;;;5.72;4.60;;;;;;;21.55;100.00;94071.34;5090223;28;20551;-52
2021/07/30 15:14:54;;;;;;;6.63;4.55;;;;;;;21.22;100.00;94068.28;5092760;28;20032;-59
2021/07/30 15:17:23;;;;;;;7.60;5.28;;;;;;;21.25;100.00;94062.91;5092799;28;20107;-58
2021/07/30 15:20:06;;;;;;;8.27;4.22;;;;;;;21.14;100.00;94092.63;5092548;28;20092;-59
2021/07/30 15:22:34;;;;;;;;;;;;;;;21.12;100.00;94220.19;5066177;28;20024;-59
2021/07/30 15:25:08;;;;;;;3.28;2.53;;;;;;;21.14;100.00;94282.47;5092632;28;19912;-59
2021/07/30 15:27:33;;;;;;;3.95;2.08;;;;;;;21.08;100.00;94338.34;5092673;28;20038;-60
2021/07/30 15:29:59;;;;;;;3.17;2.28;;;;;;;21.02;100.00;94383.28;5092490;28;20103;-60
2021/07/30 15:32:26;;;;;;;5.15;2.50;;;;;;;20.98;100.00;94428.69;5092551;28;20020;-60
2021/07/30 15:34:51;;;;;;;3.40;2.63;;;;;;;20.93;100.00;94437.88;5092414;28;20032;-60
2021/07/30 15:37:17;;;;;;;2.97;2.40;;;;;;;20.90;100.00;94433.13;5091766;28;20036;-59
2021/07/30 15:39:44;;;;;;;5.97;3.10;;;;;;;20.90;100.00;94377.91;5092545;28;20021;-59
2021/07/30 15:42:10;;;;;;;5.32;4.15;;;;;;;20.84;100.00;94206.69;5092434;28;20024;-59
2021/07/30 15:44:37;;;;;;;5.38;4.32;;;;;;;20.81;100.00;94149.41;5091870;28;20051;-57
2021/07/30 15:47:03;;;;;;;5.00;4.05;;;;;;;20.67;100.00;94140.91;5092314;28;20059;-58
2021/07/30 15:49:31;;;;;;;6.63;4.30;;;;;;;20.62;100.00;94141.97;5090844;28;20055;-59
2021/07/30 15:51:57;;;;;;;5.30;4.30;;;;;;;20.59;100.00;94153.53;5091146;28;20024;-58
2021/07/30 15:54:22;;;;;;;7.65;4.47;;;;;;;20.58;100.00;94172.94;5092244;28;20088;-52
2021/07/30 15:56:54;;;;;;;5.15;4.65;;;;;;;20.56;100.00;94195.06;5092328;28;20110;-52
2021/07/30 15:59:19;;;;;;;9.25;5.10;;;;;;;20.57;100.00;94182.25;5092041;28;20462;-51
2021/07/30 16:01:44;;;;;;;8.45;5.15;;;;;;;20.67;100.00;94176.28;5092185;28;20052;-53
2021/07/30 16:04:20;;;;;;;7.43;5.03;;;;;;;20.83;100.00;94164.25;5092074;28;20028;-53
2021/07/30 16:06:51;;;;;;;6.80;5.22;;;;;;;21.04;100.00;94163.19;5096378;28;20034;-50
2021/07/30 16:09:19;;;;;;;6.82;5.18;;;;;;;21.25;100.00;94152.00;5096105;28;20107;-55
2021/07/30 16:11:44;;;;;;;5.85;4.80;;;;;;;21.38;100.00;94161.66;5095397;28;20023;-60
2021/07/30 16:14:11;;;;;;;6.20;4.40;;;;;;;21.55;100.00;94161.28;5095941;28;20469;-61
2021/07/30 16:16:43;;;;;;;6.38;4.63;;;;;;;21.63;100.00;94179.38;5096059;28;20107;-61
2021/07/30 16:19:14;;;;;;;7.43;4.90;;;;;;;21.73;100.00;94197.09;5094592;28;20122;-61
2021/07/30 16:21:43;;;;;;;8.70;4.72;;;;;;;21.75;100.00;94200.25;5088323;28;20064;-61
2021/07/30 16:24:14;;;;;;;7.50;4.60;;;;;;;21.73;100.00;94229.00;5094649;28;20115;-61
2021/07/30 16:26:40;;;;;;;5.18;3.55;;;;;;;21.68;100.00;94233.56;5094547;28;20032;-61
2021/07/30 16:29:14;;;;;;;6.20;3.75;;;;;;;21.58;100.00;94247.75;5094450;28;20020;-61
2021/07/30 16:31:40;;;;;;;5.00;4.07;;;;;;;21.49;100.00;94247.19;5095808;28;20027;-61
2021/07/30 16:34:14;;;;;;;5.80;3.97;;;;;;;21.40;100.00;94246.56;5096051;28;20366;-61
2021/07/30 16:36:42;;;;;;;5.97;4.50;;;;;;;21.35;100.00;94222.31;5094490;28;20034;-61
2021/07/30 16:39:15;;;;;;;6.68;4.07;;;;;;;21.28;100.00;94211.25;5094590;28;20479;-61
2021/07/30 16:41:46;;;;;;;;;;;;;;;21.17;100.00;94210.19;5095993;28;20036;-61
2021/07/30 16:44:15;;;;;;;10.35;5.60;;;;;;;21.05;100.00;94168.28;5095383;28;19967;-59
2021/07/30 16:46:40;;;;;;;8.85;5.65;;;;;;;20.77;100.00;94182.00;5095537;28;20023;-58
2021/07/30 16:49:06;;;;;;;12.98;6.65;;;;;;;20.52;100.00;94205.88;5095447;28;20028;-56
2021/07/30 16:51:34;;;;;;;10.32;6.18;;;;;;;20.33;100.00;94219.31;5095446;28;20036;-58
2021/07/30 16:54:08;;;;;;;12.73;6.32;;;;;;;20.10;100.00;94208.19;5094047;28;20294;-55
2021/07/30 16:56:44;;;;;;;8.98;6.20;;;;;;;19.85;100.00;94196.59;5095267;28;20024;-51
2021/07/30 16:59:09;;;;;;;9.00;6.00;;;;;;;19.63;100.00;94192.47;5095390;28;20020;-55
2021/07/30 17:01:44;;;;;;;7.95;5.55;;;;;;;19.41;100.00;94149.47;5095368;28;20079;-55
2021/07/30 17:04:10;;;;;;;6.43;5.80;;;;;;;19.10;100.00;94080.34;5093859;28;20028;-56
2021/07/30 17:06:51;;;;;;;7.38;6.13;;;;;;;19.06;100.00;94006.16;5095179;28;20470;-55
2021/07/30 17:09:22;;;;;;;8.25;6.30;;;;;;;18.95;100.00;93983.34;5093708;28;20043;-57
2021/07/30 17:11:53;;;;;;;9.05;5.72;;;;;;;18.92;100.00;93965.03;5095014;28;20028;-57
2021/07/30 17:14:25;;;;;;;10.60;6.07;;;;;;;18.85;100.00;93913.28;5081251;28;20056;-58
2021/07/30 17:16:53;;;;;;;6.60;5.90;;;;;;;18.84;100.00;93879.16;5094852;28;20019;-58
2021/07/30 17:19:23;;;;;;;6.97;5.72;;;;;;;18.79;100.00;93822.44;5093419;28;20036;-58
2021/07/30 17:21:51;;;;;;;7.65;5.55;;;;;;;18.71;100.00;93783.47;5088158;28;20077;-58
2021/07/30 17:24:40;;;;;;;5.28;4.78;;;;;;;18.59;100.00;93752.91;5093529;28;20040;-57
2021/07/30 17:27:05;;;;;;;8.00;4.80;;;;;;;18.52;100.00;93731.81;5094823;28;20030;-57
2021/07/30 17:29:33;;;;;;;6.53;4.50;;;;;;;18.46;100.00;93725.06;5094547;28;20028;-53
2021/07/30 17:32:04;;;;;;;5.90;4.45;;;;;;;18.40;100.00;93721.81;5094585;28;20024;-56
2021/07/30 17:34:29;;;;;;;8.77;5.60;;;;;;;18.37;100.00;93710.88;5094510;28;20061;-57
2021/07/30 17:37:00;;;;;;;6.30;4.93;;;;;;;18.34;100.00;93698.00;5094728;28;20405;-55
2021/07/30 17:39:32;;;;;;;6.82;4.88;;;;;;;18.27;100.00;93684.28;5093204;28;20031;-51
2021/07/30 17:42:00;;;;;;;8.65;5.30;;;;;;;18.20;100.00;93674.03;5093323;28;20463;-58
2021/07/30 17:44:28;;;;;;;7.60;5.57;;;;;;;18.18;100.00;93662.75;5093029;28;20093;-57
2021/07/30 17:46:55;;;;;;;9.60;5.50;;;;;;;18.14;100.00;93653.75;5093605;28;20037;-54
2021/07/30 17:49:22;;;;;;;7.43;4.88;;;;;;;18.11;100.00;93649.78;5094325;28;20378;-58
2021/07/30 17:51:57;;;;;;;7.93;5.70;;;;;;;18.06;100.00;93644.63;5092939;28;20031;-58
2021/07/30 17:54:23;;;;;;;6.70;5.18;;;;;;;18.07;100.00;93624.53;5093004;28;20031;-56
2021/07/30 17:56:51;;;;;;;6.43;5.30;;;;;;;18.10;100.00;93613.00;5092969;28;20028;-57
2021/07/30 17:59:17;;;;;;;8.55;5.45;;;;;;;18.09;100.00;93600.59;5094062;28;20020;-57
2021/07/30 18:01:49;;;;;;;6.18;5.03;;;;;;;18.03;100.00;93580.31;5092856;28;20069;-58
2021/07/30 18:04:15;;;;;;;;;;;;;;;17.98;100.00;93591.38;5093127;28;20035;-58
2021/07/30 18:06:42;;;;;;;7.80;5.30;;;;;;;17.95;100.00;93582.03;5092948;28;19908;-58
2021/07/30 18:09:08;;;;;;;6.65;5.40;;;;;;;17.94;100.00;93561.50;5077511;28;20027;-58
2021/07/30 18:11:33;;;;;;;8.00;5.93;;;;;;;17.86;100.00;93553.53;5092853;28;20027;-55
2021/07/30 18:14:02;;;;;;;7.25;5.55;;;;;;;17.82;100.00;93545.34;5093074;28;20027;-58
2021/07/30 18:16:30;;;;;;;9.00;6.25;;;;;;;17.80;100.00;93531.34;5092910;28;20023;-53
2021/07/30 18:18:59;;;;;;;8.15;5.63;;;;;;;17.84;100.00;93542.28;5078128;28;20390;-58
2021/07/30 18:21:38;;;;;;;8.20;6.20;;;;;;;17.88;100.00;93514.13;5092802;28;20031;-57
2021/07/30 18:24:04;;;;;;;8.45;6.00;;;;;;;17.83;100.00;93502.78;5091563;28;20538;-58
2021/07/30 18:26:45;;;;;;;11.38;5.78;;;;;;;17.77;100.00;93498.75;5092901;28;20479;-52
2021/07/30 18:29:15;;;;;;;8.32;5.80;;;;;;;17.75;100.00;93507.22;5090912;28;20616;-56
2021/07/30 18:31:46;;;;;;;7.50;5.22;;;;;;;17.73;100.00;93533.09;5092814;28;20028;-57
2021/07/30 18:34:14;;;;;;;9.07;6.20;;;;;;;17.80;100.00;93520.53;5092717;28;20043;-53
2021/07/30 18:36:42;;;;;;;10.95;6.30;;;;;;;17.81;100.00;93521.31;5092888;28;20016;-52
2021/07/30 18:39:18;;;;;;;7.78;6.43;;;;;;;17.77;100.00;93523.13;5092256;28;20032;-52
2021/07/30 18:41:46;;;;;;;6.93;5.70;;;;;;;17.69;100.00;93524.84;5092554;28;20023;-49
2021/07/30 18:44:14;;;;;;;9.30;6.10;;;;;;;17.68;100.00;93521.31;5090620;28;20418;-53
2021/07/30 18:46:40;;;;;;;6.97;5.68;;;;;;;17.68;100.00;93539.50;5092148;28;20677;-53
2021/07/30 18:49:16;;;;;;;11.50;6.68;;;;;;;17.64;100.00;93554.88;5091685;28;20115;-50
2021/07/30 18:51:42;;;;;;;20.08;7.45;;;;;;;17.62;100.00;93551.72;5091286;28;20457;-54
2021/07/30 18:54:07;;;;;;;7.78;5.65;;;;;;;17.66;100.00;93545.25;5092447;28;20103;-55
2021/07/30 18:56:44;;;;;;;9.05;6.18;;;;;;;17.66;100.00;93530.94;5092373;28;20055;-56
2021/07/30 18:59:12;;;;;;;10.18;5.65;;;;;;;17.63;100.00;93526.22;5091790;28;20107;-57
2021/07/30 19:01:43;;;;;;;9.80;6.13;;;;;;;17.62;100.00;93520.03;5091039;28;20103;-58
2021/07/30 19:04:11;;;;;;;8.05;5.93;;;;;;;17.60;100.00;93525.00;5092212;28;20470;-58
2021/07/30 19:06:42;;;;;;;8.43;6.20;;;;;;;17.55;100.00;93538.78;5092112;28;20062;-58
2021/07/30 19:09:10;;;;;;;8.20;6.30;;;;;;;17.53;100.00;93532.13;5091611;28;20497;-57
2021/07/30 19:11:36;;;;;;;7.32;5.55;;;;;;;17.52;100.00;93539.47;5081957;28;20036;-58
2021/07/30 19:14:04;;;;;;;7.97;5.65;;;;;;;17.51;100.00;93556.06;5090518;28;20549;-53
2021/07/30 19:16:32;;;;;;;9.00;6.43;;;;;;;17.48;100.00;93545.94;5091900;28;20028;-56
2021/07/30 19:19:01;;;;;;;6.55;5.38;;;;;;;17.44;100.00;93545.03;5091362;28;20026;-54
2021/07/30 19:21:32;;;;;;;7.63;5.97;;;;;;;17.37;100.00;93551.06;5091735;28;20356;-58
2021/07/30 19:24:00;;;;;;;7.18;5.72;;;;;;;17.33;100.00;93560.97;5091639;28;20059;-58
2021/07/30 19:26:26;;;;;;;10.23;5.78;;;;;;;17.27;100.00;93567.78;5091725;28;20028;-52
2021/07/30 19:29:01;;;;;;;6.28;5.30;;;;;;;17.25;100.00;93573.50;5089916;28;20081;-55